sensor_id;sensor_type;location;lat;lon;timestamp;temperature;humidity
41547;DHT22;27271;45.412;10.852;2023-04-15T00:00:22;6.80;1.00
41547;DHT22;27271;45.412;10.852;2023-04-15T00:04:51;6.80;1.00
41547;DHT22;27271;45.412;10.852;2023-04-15T00:08:51;6.70;1.00
41547;DHT22;27271;45.412;10.852;2023-04-15T00:13:05;6.60;1.00
41547;DHT22;27271;45.412;10.852;2023-04-15T00:17:07;6.60;1.00
41547;DHT22;27271;45.412;10.852;2023-04-15T00:21:36;6.50;1.00
41547;DHT22;27271;45.412;10.852;2023-04-15T00:33:46;6.30;22.50
41547;DHT22;27271;45.412;10.852;2023-04-15T00:38:12;6.40;8.00
41547;DHT22;27271;45.412;10.852;2023-04-15T00:45:46;6.40;53.60
41547;DHT22;27271;45.412;10.852;2023-04-15T00:49:43;6.30;16.40
41547;DHT22;27271;45.412;10.852;2023-04-15T00:53:25;6.20;1.00
41547;DHT22;27271;45.412;10.852;2023-04-15T00:56:54;6.10;37.40
41547;DHT22;27271;45.412;10.852;2023-04-15T01:00:24;6.00;15.60
41547;DHT22;27271;45.412;10.852;2023-04-15T01:03:53;5.90;68.30
41547;DHT22;27271;45.412;10.852;2023-04-15T01:07:17;5.90;73.60
41547;DHT22;27271;45.412;10.852;2023-04-15T01:10:48;5.80;80.40
41547;DHT22;27271;45.412;10.852;2023-04-15T01:15:22;5.80;99.90
41547;DHT22;27271;45.412;10.852;2023-04-15T01:24:31;5.60;95.30
41547;DHT22;27271;45.412;10.852;2023-04-15T01:27:52;5.50;99.90
41547;DHT22;27271;45.412;10.852;2023-04-15T01:37:14;5.40;99.90
41547;DHT22;27271;45.412;10.852;2023-04-15T01:45:37;5.10;99.90
41547;DHT22;27271;45.412;10.852;2023-04-15T01:49:08;5.00;99.90
41547;DHT22;27271;45.412;10.852;2023-04-15T01:52:41;4.90;99.90
41547;DHT22;27271;45.412;10.852;2023-04-15T01:56:41;4.80;99.90
41547;DHT22;27271;45.412;10.852;2023-04-15T02:00:04;4.70;99.90
41547;DHT22;27271;45.412;10.852;2023-04-15T02:03:35;4.70;99.90
41547;DHT22;27271;45.412;10.852;2023-04-15T02:07:32;4.70;99.90
41547;DHT22;27271;45.412;10.852;2023-04-15T02:11:28;4.70;99.90
41547;DHT22;27271;45.412;10.852;2023-04-15T02:19:21;4.50;99.90
41547;DHT22;27271;45.412;10.852;2023-04-15T02:27:35;4.30;99.90
41547;DHT22;27271;45.412;10.852;2023-04-15T02:31:33;4.30;99.90
41547;DHT22;27271;45.412;10.852;2023-04-15T02:35:03;4.20;99.90
41547;DHT22;27271;45.412;10.852;2023-04-15T02:38:26;4.20;99.90
41547;DHT22;27271;45.412;10.852;2023-04-15T02:42:07;4.20;99.90
41547;DHT22;27271;45.412;10.852;2023-04-15T02:46:39;4.20;99.90
41547;DHT22;27271;45.412;10.852;2023-04-15T02:50:36;4.30;99.90
41547;DHT22;27271;45.412;10.852;2023-04-15T02:54:20;4.30;99.90
41547;DHT22;27271;45.412;10.852;2023-04-15T02:58:23;4.30;99.90
41547;DHT22;27271;45.412;10.852;2023-04-15T03:01:53;4.20;99.90
41547;DHT22;27271;45.412;10.852;2023-04-15T03:05:17;4.20;99.90
41547;DHT22;27271;45.412;10.852;2023-04-15T03:08:47;4.20;99.90
41547;DHT22;27271;45.412;10.852;2023-04-15T03:17:13;4.10;99.90
41547;DHT22;27271;45.412;10.852;2023-04-15T03:21:17;4.10;99.90
41547;DHT22;27271;45.412;10.852;2023-04-15T03:38:12;4.00;99.90
41547;DHT22;27271;45.412;10.852;2023-04-15T03:42:39;3.90;99.90
41547;DHT22;27271;45.412;10.852;2023-04-15T03:54:01;3.60;99.90
41547;DHT22;27271;45.412;10.852;2023-04-15T03:57:42;3.60;99.90
41547;DHT22;27271;45.412;10.852;2023-04-15T04:01:16;3.50;99.90
41547;DHT22;27271;45.412;10.852;2023-04-15T04:04:39;3.60;99.90
41547;DHT22;27271;45.412;10.852;2023-04-15T04:08:01;3.50;99.90
41547;DHT22;27271;45.412;10.852;2023-04-15T04:11:23;3.50;99.90
41547;DHT22;27271;45.412;10.852;2023-04-15T04:14:45;3.60;99.90
41547;DHT22;27271;45.412;10.852;2023-04-15T04:18:07;3.60;99.90
41547;DHT22;27271;45.412;10.852;2023-04-15T04:21:29;3.60;99.90
41547;DHT22;27271;45.412;10.852;2023-04-15T04:24:52;3.60;99.90
41547;DHT22;27271;45.412;10.852;2023-04-15T04:28:14;3.60;99.90
41547;DHT22;27271;45.412;10.852;2023-04-15T04:31:37;3.60;99.90
41547;DHT22;27271;45.412;10.852;2023-04-15T04:35:01;3.60;99.90
41547;DHT22;27271;45.412;10.852;2023-04-15T04:38:38;3.50;99.90
41547;DHT22;27271;45.412;10.852;2023-04-15T04:42:17;3.50;99.90
41547;DHT22;27271;45.412;10.852;2023-04-15T04:45:47;3.50;99.90
41547;DHT22;27271;45.412;10.852;2023-04-15T04:49:21;3.70;99.90
41547;DHT22;27271;45.412;10.852;2023-04-15T04:53:01;3.70;99.90
41547;DHT22;27271;45.412;10.852;2023-04-15T04:56:47;3.80;99.90
41547;DHT22;27271;45.412;10.852;2023-04-15T05:00:42;3.80;99.90
41547;DHT22;27271;45.412;10.852;2023-04-15T05:05:24;3.80;99.90
41547;DHT22;27271;45.412;10.852;2023-04-15T05:09:02;3.80;99.90
41547;DHT22;27271;45.412;10.852;2023-04-15T05:13:00;3.80;99.90
41547;DHT22;27271;45.412;10.852;2023-04-15T05:17:20;4.10;99.90
41547;DHT22;27271;45.412;10.852;2023-04-15T05:20:45;5.40;99.90
41547;DHT22;27271;45.412;10.852;2023-04-15T06:04:51;18.10;1.00
41547;DHT22;27271;45.412;10.852;2023-04-15T06:32:31;22.60;1.00
41547;DHT22;27271;45.412;10.852;2023-04-15T06:36:55;22.00;1.00
41547;DHT22;27271;45.412;10.852;2023-04-15T06:53:53;21.90;1.00
41547;DHT22;27271;45.412;10.852;2023-04-15T07:56:14;23.30;1.00
41547;DHT22;27271;45.412;10.852;2023-04-15T08:17:11;24.10;1.00
41547;DHT22;27271;45.412;10.852;2023-04-15T08:21:13;24.20;99.90
41547;DHT22;27271;45.412;10.852;2023-04-15T08:25:36;25.10;99.90
41547;DHT22;27271;45.412;10.852;2023-04-15T08:29:09;24.80;99.90
41547;DHT22;27271;45.412;10.852;2023-04-15T08:37:54;26.00;99.90
41547;DHT22;27271;45.412;10.852;2023-04-15T08:41:24;23.80;99.90
41547;DHT22;27271;45.412;10.852;2023-04-15T14:24:30;19.70;99.90
41547;DHT22;27271;45.412;10.852;2023-04-15T14:40:13;20.00;99.90
41547;DHT22;27271;45.412;10.852;2023-04-15T14:43:39;20.00;99.90
41547;DHT22;27271;45.412;10.852;2023-04-15T14:52:12;19.70;99.90
41547;DHT22;27271;45.412;10.852;2023-04-15T16:12:29;16.90;99.90
41547;DHT22;27271;45.412;10.852;2023-04-15T16:44:07;16.30;99.90
41547;DHT22;27271;45.412;10.852;2023-04-15T16:47:43;16.00;99.90
41547;DHT22;27271;45.412;10.852;2023-04-15T17:15:43;15.30;1.00
41547;DHT22;27271;45.412;10.852;2023-04-15T17:19:09;15.20;1.00
41547;DHT22;27271;45.412;10.852;2023-04-15T17:22:31;15.10;1.00
41547;DHT22;27271;45.412;10.852;2023-04-15T17:25:58;15.00;1.00
41547;DHT22;27271;45.412;10.852;2023-04-15T17:29:29;14.90;1.00
41547;DHT22;27271;45.412;10.852;2023-04-15T17:33:01;14.80;1.00
41547;DHT22;27271;45.412;10.852;2023-04-15T17:36:55;14.70;1.00
41547;DHT22;27271;45.412;10.852;2023-04-15T17:45:04;14.80;1.00
41547;DHT22;27271;45.412;10.852;2023-04-15T18:09:47;14.00;1.00
41547;DHT22;27271;45.412;10.852;2023-04-15T18:44:05;13.80;1.00
41547;DHT22;27271;45.412;10.852;2023-04-15T18:47:37;13.40;1.00
41547;DHT22;27271;45.412;10.852;2023-04-15T18:51:05;13.30;1.00
41547;DHT22;27271;45.412;10.852;2023-04-15T18:54:43;13.20;1.00
41547;DHT22;27271;45.412;10.852;2023-04-15T18:58:29;13.00;1.00
41547;DHT22;27271;45.412;10.852;2023-04-15T19:02:18;12.90;1.00
41547;DHT22;27271;45.412;10.852;2023-04-15T19:05:59;12.80;1.00
41547;DHT22;27271;45.412;10.852;2023-04-15T19:09:43;12.80;1.00
41547;DHT22;27271;45.412;10.852;2023-04-15T19:13:16;12.70;1.00
41547;DHT22;27271;45.412;10.852;2023-04-15T19:16:46;12.60;1.00
41547;DHT22;27271;45.412;10.852;2023-04-15T19:20:14;12.60;1.00
41547;DHT22;27271;45.412;10.852;2023-04-15T19:23:55;12.50;1.00
41547;DHT22;27271;45.412;10.852;2023-04-15T19:27:58;12.40;1.00
41547;DHT22;27271;45.412;10.852;2023-04-15T19:31:30;12.30;1.00
41547;DHT22;27271;45.412;10.852;2023-04-15T19:34:59;12.20;1.00
41547;DHT22;27271;45.412;10.852;2023-04-15T19:39:11;12.10;1.00
41547;DHT22;27271;45.412;10.852;2023-04-15T19:43:22;12.10;1.00
41547;DHT22;27271;45.412;10.852;2023-04-15T19:47:06;12.00;1.00
41547;DHT22;27271;45.412;10.852;2023-04-15T19:51:04;11.90;1.00
41547;DHT22;27271;45.412;10.852;2023-04-15T19:54:47;11.90;1.00
41547;DHT22;27271;45.412;10.852;2023-04-15T19:58:13;11.80;1.00
41547;DHT22;27271;45.412;10.852;2023-04-15T20:01:49;11.80;1.00
41547;DHT22;27271;45.412;10.852;2023-04-15T20:05:20;11.70;1.00
41547;DHT22;27271;45.412;10.852;2023-04-15T20:09:01;11.60;1.00
41547;DHT22;27271;45.412;10.852;2023-04-15T20:12:34;11.60;1.00
41547;DHT22;27271;45.412;10.852;2023-04-15T20:16:17;11.60;1.00
41547;DHT22;27271;45.412;10.852;2023-04-15T20:19:43;11.40;1.00
41547;DHT22;27271;45.412;10.852;2023-04-15T20:23:24;11.30;1.00
41547;DHT22;27271;45.412;10.852;2023-04-15T20:26:54;11.10;1.00
41547;DHT22;27271;45.412;10.852;2023-04-15T20:30:26;11.00;1.00
41547;DHT22;27271;45.412;10.852;2023-04-15T20:34:10;11.00;1.00
41547;DHT22;27271;45.412;10.852;2023-04-15T20:37:42;11.00;1.00
41547;DHT22;27271;45.412;10.852;2023-04-15T20:41:14;10.90;1.00
41547;DHT22;27271;45.412;10.852;2023-04-15T20:44:42;10.70;1.00
41547;DHT22;27271;45.412;10.852;2023-04-15T20:48:23;10.60;1.00
41547;DHT22;27271;45.412;10.852;2023-04-15T20:52:09;10.60;1.00
41547;DHT22;27271;45.412;10.852;2023-04-15T20:55:37;10.50;1.00
41547;DHT22;27271;45.412;10.852;2023-04-15T20:59:55;10.60;1.00
41547;DHT22;27271;45.412;10.852;2023-04-15T21:03:38;10.60;1.00
41547;DHT22;27271;45.412;10.852;2023-04-15T21:07:11;10.50;1.00
41547;DHT22;27271;45.412;10.852;2023-04-15T21:10:56;10.50;1.00
41547;DHT22;27271;45.412;10.852;2023-04-15T21:14:26;10.60;1.00
41547;DHT22;27271;45.412;10.852;2023-04-15T21:17:48;10.70;1.00
41547;DHT22;27271;45.412;10.852;2023-04-15T21:21:19;10.90;1.00
41547;DHT22;27271;45.412;10.852;2023-04-15T21:24:43;10.90;1.00
41547;DHT22;27271;45.412;10.852;2023-04-15T21:28:13;10.70;1.00
41547;DHT22;27271;45.412;10.852;2023-04-15T21:31:46;10.60;1.00
41547;DHT22;27271;45.412;10.852;2023-04-15T21:35:10;10.60;1.00
41547;DHT22;27271;45.412;10.852;2023-04-15T21:38:33;10.60;1.00
41547;DHT22;27271;45.412;10.852;2023-04-15T21:41:58;10.60;1.00
41547;DHT22;27271;45.412;10.852;2023-04-15T21:45:27;10.50;1.00
41547;DHT22;27271;45.412;10.852;2023-04-15T21:48:55;10.30;1.00
41547;DHT22;27271;45.412;10.852;2023-04-15T21:52:20;10.10;1.00
41547;DHT22;27271;45.412;10.852;2023-04-15T21:55:48;10.00;1.00
41547;DHT22;27271;45.412;10.852;2023-04-15T21:59:11;9.90;1.00
41547;DHT22;27271;45.412;10.852;2023-04-15T22:02:33;10.00;1.00
41547;DHT22;27271;45.412;10.852;2023-04-15T22:05:55;10.10;1.00
41547;DHT22;27271;45.412;10.852;2023-04-15T22:09:18;10.20;1.00
41547;DHT22;27271;45.412;10.852;2023-04-15T22:12:50;10.50;1.00
41547;DHT22;27271;45.412;10.852;2023-04-15T22:32:44;10.00;1.00
41547;DHT22;27271;45.412;10.852;2023-04-15T22:37:26;10.00;1.00
41547;DHT22;27271;45.412;10.852;2023-04-15T22:41:36;9.90;1.00
41547;DHT22;27271;45.412;10.852;2023-04-15T22:49:17;9.50;1.00
41547;DHT22;27271;45.412;10.852;2023-04-15T22:52:40;9.30;73.30
41547;DHT22;27271;45.412;10.852;2023-04-15T23:15:10;9.10;90.70
41547;DHT22;27271;45.412;10.852;2023-04-15T23:18:33;8.60;99.90
41547;DHT22;27271;45.412;10.852;2023-04-15T23:22:01;8.40;99.90
41547;DHT22;27271;45.412;10.852;2023-04-15T23:56:52;7.70;99.90
